Flight Track Log - Related Links

Times and Time Zones

All times are in EDT time to prevent confusion due to time zone crossing. See the AWE647 flight status page for this flight to view local times or setup timezone preferences in your user account.

Time Position Orientation Groundspeed Altitude Reporting Facility
EDT Latitude Longitude Course Direction KTS MPH feet Rate Location/Type
Wed 07:51:17 AM 42.2292 -83.3342 209° Southwest 140 161 1,300  Level Cleveland Center
Wed 07:52:30 AM 42.2914 -83.3481 351° North 221 254 3,400 2,328 Climbing Cleveland Center
Wed 07:53:00 AM 42.1485 -83.7598 217° Southwest  Level Estimated
Wed 07:53:31 AM 42.3494 -83.3619 350° North 219 252 6,500  Level Cleveland Center
Wed 07:54:00 AM 42.1269 -83.8951 211° Southwest  Level Estimated
Wed 07:54:32 AM 42.3661 -83.4442 285° West 262 302 8,400  Level Cleveland Center
Wed 07:55:00 AM 42.1051 -84.0303 211° Southwest  Level Estimated
Wed 07:55:32 AM 42.3656 -83.5481 270° West 282 325 11,300  Level Cleveland Center
Wed 07:56:00 AM 42.0832 -84.1654 209° Southwest  Level Estimated
Wed 07:56:39 AM 42.2989 -83.6264 221° Southwest 319 367 12,800  Level Cleveland Center
Wed 07:57:39 AM 42.1961 -83.6550 192° South 329 379 13,700 1,650 Climbing Cleveland Center
Wed 07:58:39 AM 42.0911 -83.6808 190° South 363 418 16,100 2,050 Climbing Cleveland Center
Wed 07:59:39 AM 41.9819 -83.7119 192° South 388 447 17,800 1,916 Climbing Cleveland Center
Wed 08:00:38 AM 41.8683 -83.7425 191° South 407 468 19,900 2,050 Climbing Cleveland Center
Wed 08:01:39 AM 41.7572 -83.7733 192° South 414 476 21,900 1,934 Climbing Cleveland Center
Wed 08:02:39 AM 41.6475 -83.8150 196° South 414 476 23,800 1,600 Climbing Cleveland Center
Wed 08:03:39 AM 41.5514 -83.8936 211° Southwest 409 471 25,100 1,400 Climbing Cleveland Center
Wed 08:04:39 AM 41.4511 -83.9714 210° Southwest 414 476 26,600 1,800 Climbing Cleveland Center
Wed 08:05:39 AM 41.3550 -84.0494 211° Southwest 419 482 28,700 1,544 Climbing Cleveland Center
Wed 08:06:55 AM 41.2489 -84.1647 219° Southwest 400 460 30,100 1,174 Climbing Chicago Center
Wed 08:07:57 AM 41.2072 -84.2969 247° West 394 453 31,400 1,268 Climbing Chicago Center
Wed 08:08:58 AM 41.1722 -84.4328 251° West 390 449 32,700 1,230 Climbing Chicago Center
Wed 08:09:59 AM 41.1386 -84.5672 252° West 383 441 33,900 634 Climbing Chicago Center
Wed 08:11:01 AM 41.1039 -84.7031 251° West 388 447 34,000 48 Climbing Chicago Center
Wed 08:12:03 AM 41.0617 -84.8675 251° West 392 451 34,000  Level Chicago Center
Wed 08:13:04 AM 41.0267 -85.0025 251° West 388 447 34,000  Level Chicago Center
Wed 08:14:06 AM 40.9911 -85.1400 251° West 393 452 34,000  Level Chicago Center
Wed 08:15:07 AM 40.9678 -85.2778 257° West 389 448 34,000  Level Chicago Center
Wed 08:16:09 AM 40.9500 -85.4192 261° West 387 445 34,000  Level Chicago Center
Wed 08:17:11 AM 40.9331 -85.5603 261° West 387 445 34,000  Level Chicago Center
Wed 08:18:12 AM 40.9153 -85.7011 261° West 389 448 34,000  Level Chicago Center
Wed 08:19:14 AM 40.8981 -85.8422 261° West 390 449 34,000  Level Chicago Center
Wed 08:20:16 AM 40.8800 -85.9836 260° West 390 449 34,000  Level Chicago Center
Wed 08:21:17 AM 40.8581 -86.1508 260° West 387 445 34,000  Level Chicago Center
Wed 08:22:19 AM 40.8389 -86.2925 260° West 389 448 34,000  Level Chicago Center
Wed 08:23:21 AM 40.8211 -86.4339 261° West 391 450 34,000  Level Chicago Center
Wed 08:24:22 AM 40.8028 -86.5739 260° West 388 447 34,000  Level Chicago Center
Wed 08:25:24 AM 40.7847 -86.7125 260° West 386 444 34,000  Level Chicago Center
Wed 08:26:26 AM 40.7636 -86.8700 260° West 380 437 34,000  Level Chicago Center
Wed 08:27:27 AM 40.7450 -87.0064 260° West 379 436 34,000  Level Chicago Center
Wed 08:28:29 AM 40.7267 -87.1425 260° West 379 436 34,000  Level Chicago Center
Wed 08:29:31 AM 40.7083 -87.2786 260° West 378 435 34,000  Level Chicago Center
Wed 08:30:33 AM 40.6883 -87.4169 259° West 382 440 34,000 683 Level Chicago Center
Wed 08:31:34 AM 40.6689 -87.5553 260° West 384 442 35,400 976 Climbing Chicago Center
Wed 08:32:36 AM 40.6503 -87.6881 260° West 372 428 36,000 290 Climbing Chicago Center
Wed 08:33:38 AM 40.6267 -87.8542 259° West 384 442 36,000  Level Chicago Center
Wed 08:34:40 AM 40.6069 -87.9917 259° West 384 442 36,000  Level Chicago Center
Wed 08:36:43 AM 40.5653 -88.2678 259° West 387 445 36,000  Level Chicago Center
Wed 08:37:45 AM 40.5428 -88.4036 258° West 383 441 36,000  Level Chicago Center
Wed 08:38:47 AM 40.5192 -88.5397 257° West 383 441 36,000  Level Chicago Center
Wed 08:39:48 AM 40.4958 -88.6742 257° West 380 437 36,000  Level Chicago Center
Wed 08:40:50 AM 40.4694 -88.8375 258° West 381 438 36,000  Level Chicago Center
Wed 08:41:52 AM 40.4481 -88.9636 257° West 382 440 36,000  Level Chicago Center
Wed 08:42:54 AM 40.4242 -89.0986 257° West 380 437 36,000  Level Chicago Center
Wed 08:43:55 AM 40.4008 -89.2342 257° West 379 436 36,000  Level Chicago Center
Wed 08:44:57 AM 40.3767 -89.3717 257° West 384 442 36,000  Level Chicago Center
Wed 08:45:59 AM 40.3511 -89.5086 256° West 384 442 36,000  Level Chicago Center
Wed 08:47:01 AM 40.3225 -89.6742 257° West 385 443 36,000  Level Chicago Center
Wed 08:48:02 AM 40.2969 -89.8139 257° West 390 449 36,000  Level Chicago Center
Wed 08:49:04 AM 40.2725 -89.9511 257° West 389 448 36,000  Level Chicago Center
Wed 08:50:06 AM 40.2475 -90.0881 257° West 386 444 36,000 -48 Level Chicago Center
Wed 08:51:08 AM 40.2222 -90.2222 256° West 379 436 35,900  Descending Chicago Center
Wed 08:52:09 AM 40.1981 -90.3625 257° West 381 438 36,000 49 Climbing Chicago Center
Wed 08:53:11 AM 40.1717 -90.4967 256° West 379 436 36,000  Level Chicago Center
Wed 08:54:13 AM 40.1425 -90.6592 257° West 395 455 36,000  Level Chicago Center
Wed 08:55:15 AM 40.1169 -90.7961 256° West 392 451 36,000  Level Chicago Center
Wed 08:56:11 AM 40.0944 -90.9142 256° West 391 450 36,000  Level Kansas City Center
Wed 08:57:11 AM 40.0644 -91.0697 256° West 391 450 36,000 48 Level Kansas City Center
Wed 08:58:15 AM 40.0378 -91.2058 256° West 390 449 36,100  Climbing Kansas City Center
Wed 08:59:16 AM 40.0122 -91.3403 256° West 386 444 36,000 -50 Descending Kansas City Center
Wed 09:00:16 AM 39.9864 -91.4742 256° West 384 442 36,000  Level Kansas City Center
Wed 09:01:18 AM 39.9606 -91.6061 256° West 380 437 36,000  Level Kansas City Center
Wed 09:02:20 AM 39.9356 -91.7383 256° West 378 435 36,000 590 Level Kansas City Center
Wed 09:03:20 AM 39.9092 -91.8664 255° West 373 429 37,200 934 Climbing Kansas City Center
Wed 09:04:22 AM 39.8839 -91.9911 255° West 362 417 37,900 393 Climbing Kansas City Center
Wed 09:05:22 AM 39.8583 -92.1167 255° West 358 412 38,000 -829 Climbing Kansas City Center
Wed 09:06:25 AM 39.8281 -92.2717 256° West 367 422 36,200 -984 Descending Kansas City Center
Wed 09:07:24 AM 39.8006 -92.4058 255° West 376 433 36,000 -98 Descending Kansas City Center
Wed 09:08:27 AM 39.7717 -92.5469 255° West 388 447 36,000  Level Kansas City Center
Wed 09:09:28 AM 39.7428 -92.6831 255° West 393 452 36,000  Level Kansas City Center
Wed 09:10:29 AM 39.7142 -92.8200 255° West 393 452 36,000  Level Kansas City Center
Wed 09:11:33 AM 39.6858 -92.9558 255° West 393 452 36,000  Level Kansas City Center
Wed 09:12:32 AM 39.6569 -93.0942 255° West 396 456 36,000  Level Kansas City Center
Wed 09:13:33 AM 39.6269 -93.2300 254° West 395 455 36,000  Level Kansas City Center
Wed 09:14:33 AM 39.5978 -93.3686 255° West 398 458 36,000  Level Kansas City Center
Wed 09:15:35 AM 39.5619 -93.5364 255° West 403 464 36,000  Level Kansas City Center
Wed 09:16:36 AM 39.5328 -93.6742 255° West 401 461 36,000  Level Kansas City Center
Wed 09:17:40 AM 39.5050 -93.8042 255° West 399 459 36,000  Level Kansas City Center
Wed 09:18:41 AM 39.4714 -93.9583 254° West 398 458 36,000  Level Kansas City Center
Wed 09:19:41 AM 39.4411 -94.0925 254° West 405 466 36,000  Level Kansas City Center
Wed 09:20:42 AM 39.4069 -94.2461 254° West 398 458 36,000  Level Kansas City Center
Wed 09:21:45 AM 39.3783 -94.3775 254° West 396 456 36,000  Level Kansas City Center
Wed 09:22:47 AM 39.3483 -94.5089 254° West 398 458 36,000  Level Kansas City Center
Wed 09:23:48 AM 39.3131 -94.6608 253° West 397 457 36,000  Level Kansas City Center
Wed 09:24:48 AM 39.2833 -94.7933 254° West 398 458 36,000  Level Kansas City Center
Wed 09:25:50 AM 39.2522 -94.9319 254° West 423 487 36,000  Level Kansas City Center
Wed 09:26:52 AM 39.2133 -95.0958 253° West 425 489 36,000  Level Kansas City Center
Wed 09:27:53 AM 39.1772 -95.2519 253° West 428 493 36,000  Level Kansas City Center
Wed 09:28:55 AM 39.1431 -95.3967 253° West 425 489 36,000  Level Kansas City Center
Wed 09:29:56 AM 39.1072 -95.5506 253° West 430 495 36,000  Level Kansas City Center
Wed 09:30:59 AM 39.0736 -95.6914 253° West 430 495 36,000  Level Kansas City Center
Wed 09:32:00 AM 39.0333 -95.8600 253° West 440 506 36,000  Level Kansas City Center
Wed 09:33:00 AM 38.9986 -96.0050 253° West 443 510 36,000  Level Kansas City Center
Wed 09:34:04 AM 38.9614 -96.1486 252° West 444 511 36,000  Level Kansas City Center
Wed 09:35:04 AM 38.9233 -96.3186 254° West 443 510 36,000  Level Kansas City Center
Wed 09:36:05 AM 38.8878 -96.4644 253° West 446 513 36,000  Level Kansas City Center
Wed 09:37:08 AM 38.8483 -96.6242 252° West 446 513 36,000 48 Level Kansas City Center
Wed 09:38:09 AM 38.8117 -96.7753 253° West 445 512 36,100  Climbing Kansas City Center
Wed 09:39:09 AM 38.7778 -96.9236 254° West 437 503 36,000 -48 Descending Kansas City Center
Wed 09:40:13 AM 38.7425 -97.0656 252° West 423 487 36,000 -48 Level Kansas City Center
Wed 09:41:13 AM 38.7078 -97.2069 253° West 418 481 35,900  Descending Kansas City Center
Wed 09:42:17 AM 38.6722 -97.3472 252° West 416 479 36,000 48 Climbing Kansas City Center
Wed 09:43:18 AM 38.6297 -97.5169 252° West 419 482 36,000  Level Kansas City Center
Wed 09:44:19 AM 38.5939 -97.6594 252° West 423 487 36,000  Level Kansas City Center
Wed 09:45:19 AM 38.5578 -97.8014 252° West 423 487 36,000  Level Kansas City Center
Wed 09:46:24 AM 38.5219 -97.9425 252° West 422 486 36,000  Level Kansas City Center
Wed 09:47:25 AM 38.4850 -98.0856 252° West 418 481 36,000  Level Kansas City Center
Wed 09:48:26 AM 38.4503 -98.2203 252° West 414 476 36,000  Level Kansas City Center
Wed 09:49:27 AM 38.4075 -98.3839 252° West 409 471 36,000  Level Kansas City Center
Wed 09:50:30 AM 38.3731 -98.5192 252° West 405 466 36,000  Level Kansas City Center
Wed 09:51:31 AM 38.3386 -98.6517 252° West 398 458 36,000  Level Kansas City Center
Wed 09:52:33 AM 38.3033 -98.7842 251° West 396 456 36,000  Level Kansas City Center
Wed 09:53:36 AM 38.2681 -98.9150 251° West 393 452 36,000  Level Kansas City Center
Wed 09:54:37 AM 38.2331 -99.0467 251° West 394 453 36,000  Level Kansas City Center
Wed 09:55:39 AM 38.1903 -99.2042 251° West 394 453 36,000  Level Kansas City Center
Wed 09:56:40 AM 38.1556 -99.3353 251° West 394 453 36,000  Level Kansas City Center
Wed 09:57:40 AM 38.1200 -99.4694 251° West 398 458 36,000  Level Kansas City Center
Wed 09:58:44 AM 38.0786 -99.6178 251° West 400 460 36,000  Level Kansas City Center
Wed 09:59:44 AM 38.0439 -99.7442 251° West 398 458 36,000  Level Kansas City Center
Wed 10:00:45 AM 38.0086 -99.8722 251° West 401 461 36,000  Level Kansas City Center
Wed 10:01:48 AM 37.9672 -100.0214 251° West 402 463 36,000  Level Kansas City Center
Wed 10:02:49 AM 37.9317 -100.1494 251° West 403 464 36,000  Level Kansas City Center
Wed 10:03:52 AM 37.8897 -100.2981 250° West 402 463 36,000  Level Kansas City Center
Wed 10:04:53 AM 37.8539 -100.4256 250° West 402 463 36,000  Level Kansas City Center
Wed 10:05:55 AM 37.8117 -100.5739 250° West 401 461 36,000  Level Kansas City Center
Wed 10:06:57 AM 37.7761 -100.6983 250° West 398 458 36,000  Level Kansas City Center
Wed 10:07:58 AM 37.7383 -100.8314 250° West 399 459 36,000  Level Kansas City Center
Wed 10:08:59 AM 37.6994 -100.9631 250° West 400 460 36,000  Level Kansas City Center
Wed 10:10:01 AM 37.6608 -101.0961 250° West 402 463 36,000  Level Kansas City Center
Wed 10:11:03 AM 37.6197 -101.2375 250° West 399 459 36,000  Level Kansas City Center
Wed 10:12:07 AM 37.5772 -101.3825 250° West 397 457 36,000  Level Kansas City Center
Wed 10:13:07 AM 37.5414 -101.5064 250° West 394 453 36,000  Level Kansas City Center
Wed 10:14:10 AM 37.4994 -101.6492 250° West 392 451 36,000  Level Kansas City Center
Wed 10:15:13 AM 37.4633 -101.7725 250° West 391 450 36,000  Level Kansas City Center
Wed 10:16:11 AM 37.4264 -101.8964 249° West 394 453 36,000  Level Kansas City Center
Wed 10:16:34 AM 37.4086 -101.9578 250° West 393 452 36,000  Level Albuquerque Center
Wed 10:17:35 AM 37.3714 -102.0811 249° West 393 452 36,000  Level Albuquerque Center
Wed 10:18:37 AM 37.3275 -102.2272 249° West 398 458 36,000  Level Albuquerque Center
Wed 10:19:39 AM 37.2892 -102.3531 249° West 401 461 36,000  Level Albuquerque Center
Wed 10:20:40 AM 37.2450 -102.4997 249° West 402 463 36,000  Level Albuquerque Center
Wed 10:21:42 AM 37.2069 -102.6242 249° West 400 460 36,000  Level Albuquerque Center
Wed 10:22:44 AM 37.1689 -102.7478 249° West 398 458 36,000  Level Albuquerque Center
Wed 10:23:46 AM 37.1253 -102.8911 249° West 395 455 36,000  Level Albuquerque Center
Wed 10:24:47 AM 37.0872 -103.0133 249° West 393 452 36,000  Level Albuquerque Center
Wed 10:25:49 AM 37.0436 -103.1536 249° West 389 448 36,000  Level Albuquerque Center
Wed 10:26:51 AM 37.0067 -103.2733 249° West 385 443 36,000  Level Albuquerque Center
Wed 10:27:53 AM 36.9689 -103.3914 248° West 381 438 36,000  Level Albuquerque Center
Wed 10:28:54 AM 36.9264 -103.5297 249° West 380 437 36,000  Level Albuquerque Center
Wed 10:29:56 AM 36.8889 -103.6483 248° West 381 438 36,000  Level Albuquerque Center
Wed 10:30:58 AM 36.8461 -103.7839 249° West 377 434 36,000  Level Albuquerque Center
Wed 10:32:00 AM 36.8089 -103.9019 249° West 378 435 36,000  Level Albuquerque Center
Wed 10:33:01 AM 36.7653 -104.0364 248° West 375 432 36,000  Level Albuquerque Center
Wed 10:34:03 AM 36.7286 -104.1483 248° West 368 423 36,000  Level Albuquerque Center
Wed 10:35:05 AM 36.6939 -104.2569 248° West 358 412 36,000  Level Albuquerque Center
Wed 10:36:07 AM 36.6550 -104.3733 247° West 353 406 36,000  Level Albuquerque Center
Wed 10:37:08 AM 36.6172 -104.4875 248° West 355 409 36,000  Level Albuquerque Center
Wed 10:38:10 AM 36.5744 -104.6219 248° West 356 410 36,000  Level Albuquerque Center
Wed 10:39:12 AM 36.5367 -104.7333 247° West 350 403 36,000  Level Albuquerque Center
Wed 10:40:14 AM 36.5003 -104.8475 248° West 352 405 36,000  Level Albuquerque Center
Wed 10:41:15 AM 36.4617 -104.9614 247° West 354 407 36,000  Level Albuquerque Center
Wed 10:42:17 AM 36.4239 -105.0742 247° West 353 406 36,000  Level Albuquerque Center
Wed 10:43:19 AM 36.3858 -105.1878 247° West 353 406 36,000  Level Albuquerque Center
Wed 10:44:21 AM 36.3483 -105.2967 247° West 346 398 36,000  Level Albuquerque Center
Wed 10:45:22 AM 36.3108 -105.4083 247° West 347 399 36,000  Level Albuquerque Center
Wed 10:46:24 AM 36.2675 -105.5392 248° West 349 402 36,000  Level Albuquerque Center
Wed 10:47:26 AM 36.2319 -105.6439 247° West 360 414 36,000  Level Albuquerque Center
Wed 10:48:28 AM 36.1928 -105.7581 247° West 362 417 36,000  Level Albuquerque Center
Wed 10:49:29 AM 36.1544 -105.8697 247° West 356 410 36,000  Level Albuquerque Center
Wed 10:50:31 AM 36.1167 -105.9797 247° West 351 404 36,000  Level Albuquerque Center
Wed 10:51:33 AM 36.0700 -106.1111 246° West 349 402 36,000  Level Albuquerque Center
Wed 10:52:35 AM 36.0350 -106.2214 249° West 347 399 36,000  Level Albuquerque Center
Wed 10:53:36 AM 35.9964 -106.3308 246° West 348 400 36,000  Level Albuquerque Center
Wed 10:54:38 AM 35.9572 -106.4406 246° West 349 402 36,000  Level Albuquerque Center
Wed 10:55:40 AM 35.9183 -106.5508 246° West 351 404 36,000  Level Albuquerque Center
Wed 10:56:42 AM 35.8758 -106.6731 247° West 356 410 36,000  Level Albuquerque Center
Wed 10:57:43 AM 35.8325 -106.7969 247° West 354 407 36,000  Level Albuquerque Center
Wed 10:58:45 AM 35.7944 -106.9042 246° West 355 409 36,000  Level Albuquerque Center
Wed 10:59:47 AM 35.7506 -107.0253 246° West 350 403 36,000  Level Albuquerque Center
Wed 11:00:49 AM 35.7133 -107.1308 247° West 350 403 36,000  Level Albuquerque Center
Wed 11:01:51 AM 35.6772 -107.2328 246° West 345 397 36,000  Level Albuquerque Center
Wed 11:02:52 AM 35.6325 -107.3550 246° West 347 399 36,000  Level Albuquerque Center
Wed 11:03:54 AM 35.5953 -107.4603 247° West 350 403 36,000  Level Albuquerque Center
Wed 11:04:56 AM 35.5500 -107.5839 246° West 353 406 36,000  Level Albuquerque Center
Wed 11:05:58 AM 35.5114 -107.6903 246° West 355 409 36,000  Level Albuquerque Center
Wed 11:07:00 AM 35.4672 -107.8133 246° West 353 406 36,000  Level Albuquerque Center
Wed 11:08:02 AM 35.4283 -107.9192 246° West 354 407 36,000  Level Albuquerque Center
Wed 11:09:03 AM 35.3892 -108.0256 246° West 356 410 36,000  Level Albuquerque Center
Wed 11:10:05 AM 35.3439 -108.1511 246° West 359 413 36,000  Level Albuquerque Center
Wed 11:11:07 AM 35.3028 -108.2589 245° Southwest 361 415 36,000  Level Albuquerque Center
Wed 11:12:09 AM 35.2583 -108.3803 246° West 353 406 36,000  Level Albuquerque Center
Wed 11:13:11 AM 35.2194 -108.4847 246° West 352 405 36,000 -48 Level Albuquerque Center
Wed 11:14:13 AM 35.1750 -108.6039 246° West 346 398 35,900  Descending Albuquerque Center
Wed 11:15:15 AM 35.1367 -108.7042 245° Southwest 342 394 36,000 48 Climbing Albuquerque Center
Wed 11:16:17 AM 35.1161 -108.8317 259° West 344 396 36,000  Level Albuquerque Center
Wed 11:17:19 AM 35.1072 -108.9444 265° West 346 398 36,000  Level Albuquerque Center
Wed 11:18:21 AM 35.0969 -109.0542 263° West 342 394 36,000  Level Albuquerque Center
Wed 11:19:23 AM 35.0844 -109.1817 263° West 339 390 36,000  Level Albuquerque Center
Wed 11:20:25 AM 35.0750 -109.2911 264° West 338 389 36,000  Level Albuquerque Center
Wed 11:21:27 AM 35.0231 -109.4017 240° Southwest 342 394 36,000  Level Albuquerque Center
Wed 11:22:29 AM 34.9650 -109.4889 231° Southwest 345 397 36,000  Level Albuquerque Center
Wed 11:23:31 AM 34.8947 -109.5864 229° Southwest 343 395 36,000 48 Level Albuquerque Center
Wed 11:24:33 AM 34.8358 -109.6728 230° Southwest 344 396 36,100  Climbing Albuquerque Center
Wed 11:25:35 AM 34.7683 -109.7689 229° Southwest 338 389 36,000 -435 Descending Albuquerque Center
Wed 11:26:37 AM 34.7122 -109.8519 231° Southwest 334 384 35,200 -829 Descending Albuquerque Center
Wed 11:27:38 AM 34.6750 -109.9450 244° Southwest 320 368 34,300 -976 Descending Albuquerque Center
Wed 11:28:40 AM 34.6356 -110.0522 246° West 313 360 33,200 -1,016 Descending Albuquerque Center
Wed 11:29:42 AM 34.6047 -110.1492 249° West 320 368 32,200 -581 Descending Albuquerque Center
Wed 11:30:44 AM 34.5636 -110.2561 245° Southwest 315 362 32,000 -97 Descending Albuquerque Center
Wed 11:31:46 AM 34.5269 -110.3442 243° Southwest 311 358 32,000 -48 Level Albuquerque Center
Wed 11:32:48 AM 34.4869 -110.4525 246° West 314 361 31,900 -532 Descending Albuquerque Center
Wed 11:33:50 AM 34.4539 -110.5483 247° West 313 360 30,900 -976 Descending Albuquerque Center
Wed 11:34:51 AM 34.4175 -110.6425 245° Southwest 309 356 29,900 -1,024 Descending Albuquerque Center
Wed 11:35:53 AM 34.3806 -110.7347 244° Southwest 306 352 28,800 -1,306 Descending Albuquerque Center
Wed 11:36:55 AM 34.3383 -110.8200 239° Southwest 299 344 27,200 -1,597 Descending Albuquerque Center
Wed 11:37:57 AM 34.2819 -110.8892 225° Southwest 291 335 25,500 -1,597 Descending Albuquerque Center
Wed 11:38:59 AM 34.2297 -110.9569 227° Southwest 281 323 23,900 -1,707 Descending Albuquerque Center
Wed 11:40:00 AM 34.1706 -111.0328 227° Southwest 264 304 22,000 -1,805 Descending Albuquerque Center
Wed 11:41:02 AM 34.1231 -111.0961 228° Southwest 257 296 20,200 -1,742 Descending Albuquerque Center
Wed 11:42:04 AM 34.0728 -111.1594 226° Southwest 258 297 18,400 -1,694 Descending Albuquerque Center
Wed 11:43:06 AM 34.0181 -111.2294 227° Southwest 276 318 16,700 -1,645 Descending Albuquerque Center
Wed 11:44:08 AM 33.9611 -111.3028 227° Southwest 294 338 15,000 -1,756 Descending Albuquerque Center
Wed 11:45:09 AM 33.9056 -111.3747 227° Southwest 293 337 13,100 -1,756 Descending Albuquerque Center
Wed 11:46:11 AM 33.8461 -111.4353 220° Southwest 280 322 11,400 -1,452 Descending Albuquerque Center
Wed 11:47:13 AM 33.7825 -111.4900 216° Southwest 279 321 10,100 -1,548 Descending Albuquerque Center
Wed 11:48:15 AM 33.7083 -111.5544 216° Southwest 273 314 8,200 -1,024 Descending Albuquerque Center
Wed 11:49:16 AM 33.6511 -111.6031 215° Southwest 247 284 8,000 -244 Descending Albuquerque Center
Wed 11:50:18 AM 33.6003 -111.6469 216° Southwest 226 260 7,700 -677 Descending Albuquerque Center
Wed 11:51:20 AM 33.5511 -111.6933 218° Southwest 225 259 6,600 -1,113 Descending Albuquerque Center
Wed 11:52:22 AM 33.5028 -111.7386 218° Southwest 222 255 5,400 -1,073 Descending Albuquerque Center
Wed 11:53:23 AM 33.4589 -111.7892 224° Southwest 218 251 4,400 -984 Descending Albuquerque Center

Login

Don't have an account? Register now (free) for customized features, flight alerts, and more!